sensor_id;sensor_type;location;lat;lon;timestamp;temperature;humidity
3380;DHT22;1703;51.964;7.642;2022-07-04T00:02:09;19.40;99.90
3380;DHT22;1703;51.964;7.642;2022-07-04T00:04:36;19.30;99.90
3380;DHT22;1703;51.964;7.642;2022-07-04T00:07:03;19.20;99.90
3380;DHT22;1703;51.964;7.642;2022-07-04T00:09:30;19.20;99.90
3380;DHT22;1703;51.964;7.642;2022-07-04T00:11:57;19.20;99.90
3380;DHT22;1703;51.964;7.642;2022-07-04T00:14:24;19.10;99.90
3380;DHT22;1703;51.964;7.642;2022-07-04T00:16:52;19.10;99.90
3380;DHT22;1703;51.964;7.642;2022-07-04T00:19:19;19.00;99.90
3380;DHT22;1703;51.964;7.642;2022-07-04T00:21:46;19.00;99.90
3380;DHT22;1703;51.964;7.642;2022-07-04T00:24:13;19.00;99.90
3380;DHT22;1703;51.964;7.642;2022-07-04T00:26:39;18.90;99.90
3380;DHT22;1703;51.964;7.642;2022-07-04T00:29:06;18.90;99.90
3380;DHT22;1703;51.964;7.642;2022-07-04T00:31:33;18.90;99.90
3380;DHT22;1703;51.964;7.642;2022-07-04T00:34:02;18.90;99.90
3380;DHT22;1703;51.964;7.642;2022-07-04T00:36:29;18.80;99.90
3380;DHT22;1703;51.964;7.642;2022-07-04T00:38:56;18.80;99.90
3380;DHT22;1703;51.964;7.642;2022-07-04T00:41:23;18.80;99.90
3380;DHT22;1703;51.964;7.642;2022-07-04T00:44:00;18.70;99.90
3380;DHT22;1703;51.964;7.642;2022-07-04T00:46:26;18.70;99.90
3380;DHT22;1703;51.964;7.642;2022-07-04T00:48:53;18.60;99.90
3380;DHT22;1703;51.964;7.642;2022-07-04T00:51:22;18.60;99.90
3380;DHT22;1703;51.964;7.642;2022-07-04T00:53:49;18.60;99.90
3380;DHT22;1703;51.964;7.642;2022-07-04T00:56:16;18.60;99.90
3380;DHT22;1703;51.964;7.642;2022-07-04T00:58:43;18.50;99.90
3380;DHT22;1703;51.964;7.642;2022-07-04T01:01:10;18.50;99.90
3380;DHT22;1703;51.964;7.642;2022-07-04T01:03:37;18.50;99.90
3380;DHT22;1703;51.964;7.642;2022-07-04T01:06:04;18.50;99.90
3380;DHT22;1703;51.964;7.642;2022-07-04T01:08:35;18.40;99.90
3380;DHT22;1703;51.964;7.642;2022-07-04T01:11:02;18.50;99.90
3380;DHT22;1703;51.964;7.642;2022-07-04T01:13:29;18.40;99.90
3380;DHT22;1703;51.964;7.642;2022-07-04T01:15:56;18.30;99.90
3380;DHT22;1703;51.964;7.642;2022-07-04T01:18:22;18.30;99.90
3380;DHT22;1703;51.964;7.642;2022-07-04T01:20:51;18.20;99.90
3380;DHT22;1703;51.964;7.642;2022-07-04T01:23:18;18.10;99.90
3380;DHT22;1703;51.964;7.642;2022-07-04T01:25:45;18.10;99.90
3380;DHT22;1703;51.964;7.642;2022-07-04T01:28:12;18.10;99.90
3380;DHT22;1703;51.964;7.642;2022-07-04T01:30:39;18.10;99.90
3380;DHT22;1703;51.964;7.642;2022-07-04T01:33:06;18.10;99.90
3380;DHT22;1703;51.964;7.642;2022-07-04T01:35:32;18.00;99.90
3380;DHT22;1703;51.964;7.642;2022-07-04T01:38:01;18.00;99.90
3380;DHT22;1703;51.964;7.642;2022-07-04T01:40:28;17.90;99.90
3380;DHT22;1703;51.964;7.642;2022-07-04T01:42:54;18.00;99.90
3380;DHT22;1703;51.964;7.642;2022-07-04T01:45:24;17.90;99.90
3380;DHT22;1703;51.964;7.642;2022-07-04T01:47:51;17.90;99.90
3380;DHT22;1703;51.964;7.642;2022-07-04T01:50:18;17.90;99.90
3380;DHT22;1703;51.964;7.642;2022-07-04T01:52:45;17.90;99.90
3380;DHT22;1703;51.964;7.642;2022-07-04T01:55:13;17.80;99.90
3380;DHT22;1703;51.964;7.642;2022-07-04T01:57:40;17.80;99.90
3380;DHT22;1703;51.964;7.642;2022-07-04T02:00:09;17.80;99.90
3380;DHT22;1703;51.964;7.642;2022-07-04T02:02:55;17.70;99.90
3380;DHT22;1703;51.964;7.642;2022-07-04T02:05:22;17.70;99.90
3380;DHT22;1703;51.964;7.642;2022-07-04T02:07:49;17.70;99.90
3380;DHT22;1703;51.964;7.642;2022-07-04T02:10:17;17.70;99.90
3380;DHT22;1703;51.964;7.642;2022-07-04T02:12:44;17.60;99.90
3380;DHT22;1703;51.964;7.642;2022-07-04T02:15:30;17.70;99.90
3380;DHT22;1703;51.964;7.642;2022-07-04T02:17:57;17.70;99.90
3380;DHT22;1703;51.964;7.642;2022-07-04T02:20:25;17.70;99.90
3380;DHT22;1703;51.964;7.642;2022-07-04T02:22:52;17.60;99.90
3380;DHT22;1703;51.964;7.642;2022-07-04T02:25:20;17.60;99.90
3380;DHT22;1703;51.964;7.642;2022-07-04T02:27:54;17.50;99.90
3380;DHT22;1703;51.964;7.642;2022-07-04T02:30:21;17.40;99.90
3380;DHT22;1703;51.964;7.642;2022-07-04T02:32:48;17.40;99.90
3380;DHT22;1703;51.964;7.642;2022-07-04T02:35:15;17.30;99.90
3380;DHT22;1703;51.964;7.642;2022-07-04T02:37:42;17.30;99.90
3380;DHT22;1703;51.964;7.642;2022-07-04T02:40:09;17.30;99.90
3380;DHT22;1703;51.964;7.642;2022-07-04T02:42:38;17.20;99.90
3380;DHT22;1703;51.964;7.642;2022-07-04T02:45:05;17.20;99.90
3380;DHT22;1703;51.964;7.642;2022-07-04T02:47:33;17.20;99.90
3380;DHT22;1703;51.964;7.642;2022-07-04T02:50:00;17.10;99.90
3380;DHT22;1703;51.964;7.642;2022-07-04T02:52:28;17.10;99.90
3380;DHT22;1703;51.964;7.642;2022-07-04T02:54:55;17.10;99.90
3380;DHT22;1703;51.964;7.642;2022-07-04T02:57:22;17.10;99.90
3380;DHT22;1703;51.964;7.642;2022-07-04T02:59:50;17.10;99.90
3380;DHT22;1703;51.964;7.642;2022-07-04T03:02:17;17.10;99.90
3380;DHT22;1703;51.964;7.642;2022-07-04T03:04:44;17.10;99.90
3380;DHT22;1703;51.964;7.642;2022-07-04T03:07:10;17.10;99.90
3380;DHT22;1703;51.964;7.642;2022-07-04T03:09:37;17.10;99.90
3380;DHT22;1703;51.964;7.642;2022-07-04T03:12:05;17.10;99.90
3380;DHT22;1703;51.964;7.642;2022-07-04T03:14:32;17.10;99.90
3380;DHT22;1703;51.964;7.642;2022-07-04T03:17:00;17.00;99.90
3380;DHT22;1703;51.964;7.642;2022-07-04T03:19:27;17.10;99.90
3380;DHT22;1703;51.964;7.642;2022-07-04T03:21:54;17.00;99.90
3380;DHT22;1703;51.964;7.642;2022-07-04T03:24:21;17.10;99.90
3380;DHT22;1703;51.964;7.642;2022-07-04T03:26:47;17.00;99.90
3380;DHT22;1703;51.964;7.642;2022-07-04T03:29:14;17.10;99.90
3380;DHT22;1703;51.964;7.642;2022-07-04T03:31:41;17.10;99.90
3380;DHT22;1703;51.964;7.642;2022-07-04T03:34:10;17.10;99.90
3380;DHT22;1703;51.964;7.642;2022-07-04T03:36:36;17.00;99.90
3380;DHT22;1703;51.964;7.642;2022-07-04T03:39:03;17.00;99.90
3380;DHT22;1703;51.964;7.642;2022-07-04T03:41:30;17.00;99.90
3380;DHT22;1703;51.964;7.642;2022-07-04T03:43:57;17.00;99.90
3380;DHT22;1703;51.964;7.642;2022-07-04T03:46:24;16.90;99.90
3380;DHT22;1703;51.964;7.642;2022-07-04T03:48:51;16.90;99.90
3380;DHT22;1703;51.964;7.642;2022-07-04T03:51:19;16.90;99.90
3380;DHT22;1703;51.964;7.642;2022-07-04T03:53:46;16.90;99.90
3380;DHT22;1703;51.964;7.642;2022-07-04T03:56:13;16.80;99.90
3380;DHT22;1703;51.964;7.642;2022-07-04T03:58:40;16.90;99.90
3380;DHT22;1703;51.964;7.642;2022-07-04T04:01:08;16.90;99.90
3380;DHT22;1703;51.964;7.642;2022-07-04T04:03:35;16.90;99.90
3380;DHT22;1703;51.964;7.642;2022-07-04T04:06:21;16.90;99.90
3380;DHT22;1703;51.964;7.642;2022-07-04T04:08:47;16.80;99.90
3380;DHT22;1703;51.964;7.642;2022-07-04T04:11:14;16.80;99.90
3380;DHT22;1703;51.964;7.642;2022-07-04T04:13:41;16.80;99.90
3380;DHT22;1703;51.964;7.642;2022-07-04T04:16:08;16.80;99.90
3380;DHT22;1703;51.964;7.642;2022-07-04T04:18:35;16.80;99.90
3380;DHT22;1703;51.964;7.642;2022-07-04T04:21:02;16.80;99.90
3380;DHT22;1703;51.964;7.642;2022-07-04T04:23:30;16.70;99.90
3380;DHT22;1703;51.964;7.642;2022-07-04T04:25:57;16.80;99.90
3380;DHT22;1703;51.964;7.642;2022-07-04T04:28:24;16.80;99.90
3380;DHT22;1703;51.964;7.642;2022-07-04T04:30:51;16.80;99.90
3380;DHT22;1703;51.964;7.642;2022-07-04T04:33:18;16.80;99.90
3380;DHT22;1703;51.964;7.642;2022-07-04T04:35:44;16.80;99.90
3380;DHT22;1703;51.964;7.642;2022-07-04T04:38:11;16.80;99.90
3380;DHT22;1703;51.964;7.642;2022-07-04T04:40:39;16.80;99.90
3380;DHT22;1703;51.964;7.642;2022-07-04T04:43:06;16.90;99.90
3380;DHT22;1703;51.964;7.642;2022-07-04T04:45:33;16.90;99.90
3380;DHT22;1703;51.964;7.642;2022-07-04T04:48:00;16.90;99.90
3380;DHT22;1703;51.964;7.642;2022-07-04T04:50:27;17.00;99.90
3380;DHT22;1703;51.964;7.642;2022-07-04T04:52:54;17.00;99.90
3380;DHT22;1703;51.964;7.642;2022-07-04T04:55:20;17.00;99.90
3380;DHT22;1703;51.964;7.642;2022-07-04T04:57:49;17.00;99.90
3380;DHT22;1703;51.964;7.642;2022-07-04T05:00:16;17.00;99.90
3380;DHT22;1703;51.964;7.642;2022-07-04T05:02:43;17.10;99.90
3380;DHT22;1703;51.964;7.642;2022-07-04T05:05:10;17.10;99.90
3380;DHT22;1703;51.964;7.642;2022-07-04T05:07:37;17.20;99.90
3380;DHT22;1703;51.964;7.642;2022-07-04T05:10:04;17.20;99.90
3380;DHT22;1703;51.964;7.642;2022-07-04T05:12:31;17.30;99.90
3380;DHT22;1703;51.964;7.642;2022-07-04T05:15:00;17.30;99.90
3380;DHT22;1703;51.964;7.642;2022-07-04T05:17:26;17.30;99.90
3380;DHT22;1703;51.964;7.642;2022-07-04T05:19:53;17.40;99.90
3380;DHT22;1703;51.964;7.642;2022-07-04T05:22:21;17.40;99.90
3380;DHT22;1703;51.964;7.642;2022-07-04T05:24:47;17.40;99.90
3380;DHT22;1703;51.964;7.642;2022-07-04T05:27:14;17.50;99.90
3380;DHT22;1703;51.964;7.642;2022-07-04T05:29:41;17.50;99.90
3380;DHT22;1703;51.964;7.642;2022-07-04T05:32:09;17.50;99.90
3380;DHT22;1703;51.964;7.642;2022-07-04T05:34:36;17.50;99.90
3380;DHT22;1703;51.964;7.642;2022-07-04T05:37:03;17.40;99.90
3380;DHT22;1703;51.964;7.642;2022-07-04T05:39:30;17.50;99.90
3380;DHT22;1703;51.964;7.642;2022-07-04T05:41:57;17.50;99.90
3380;DHT22;1703;51.964;7.642;2022-07-04T05:44:24;17.40;99.90
3380;DHT22;1703;51.964;7.642;2022-07-04T05:46:51;17.30;99.90
3380;DHT22;1703;51.964;7.642;2022-07-04T05:49:19;17.30;99.90
3380;DHT22;1703;51.964;7.642;2022-07-04T05:51:46;17.40;99.90
3380;DHT22;1703;51.964;7.642;2022-07-04T05:54:13;17.40;99.90
3380;DHT22;1703;51.964;7.642;2022-07-04T05:56:39;17.40;99.90
3380;DHT22;1703;51.964;7.642;2022-07-04T05:59:08;17.60;99.90
3380;DHT22;1703;51.964;7.642;2022-07-04T06:01:35;17.70;99.90
3380;DHT22;1703;51.964;7.642;2022-07-04T06:04:02;17.80;99.90
3380;DHT22;1703;51.964;7.642;2022-07-04T06:06:30;17.70;99.90
3380;DHT22;1703;51.964;7.642;2022-07-04T06:08:57;17.80;99.90
3380;DHT22;1703;51.964;7.642;2022-07-04T06:11:24;17.90;99.90
3380;DHT22;1703;51.964;7.642;2022-07-04T06:13:51;18.00;99.90
3380;DHT22;1703;51.964;7.642;2022-07-04T06:16:18;18.00;99.90
3380;DHT22;1703;51.964;7.642;2022-07-04T06:18:45;18.10;99.90
3380;DHT22;1703;51.964;7.642;2022-07-04T06:21:12;18.10;99.90
3380;DHT22;1703;51.964;7.642;2022-07-04T06:23:41;18.20;99.90
3380;DHT22;1703;51.964;7.642;2022-07-04T06:26:07;18.20;99.90
3380;DHT22;1703;51.964;7.642;2022-07-04T06:28:34;18.30;99.90
3380;DHT22;1703;51.964;7.642;2022-07-04T06:31:01;18.30;99.90
3380;DHT22;1703;51.964;7.642;2022-07-04T06:33:29;18.30;99.90
3380;DHT22;1703;51.964;7.642;2022-07-04T06:35:56;18.30;99.90
3380;DHT22;1703;51.964;7.642;2022-07-04T06:38:29;18.30;99.90
3380;DHT22;1703;51.964;7.642;2022-07-04T06:40:58;18.20;99.90
3380;DHT22;1703;51.964;7.642;2022-07-04T06:43:26;18.30;99.90
3380;DHT22;1703;51.964;7.642;2022-07-04T06:45:53;18.30;99.90
3380;DHT22;1703;51.964;7.642;2022-07-04T06:48:20;18.40;99.90
3380;DHT22;1703;51.964;7.642;2022-07-04T06:50:47;18.50;99.90
3380;DHT22;1703;51.964;7.642;2022-07-04T06:53:14;18.50;99.90
3380;DHT22;1703;51.964;7.642;2022-07-04T06:55:42;18.60;99.90
3380;DHT22;1703;51.964;7.642;2022-07-04T06:58:10;18.70;99.90
3380;DHT22;1703;51.964;7.642;2022-07-04T07:00:37;18.80;99.90
3380;DHT22;1703;51.964;7.642;2022-07-04T07:03:04;18.80;99.90
3380;DHT22;1703;51.964;7.642;2022-07-04T07:05:31;18.90;99.90
3380;DHT22;1703;51.964;7.642;2022-07-04T07:07:58;18.90;99.90
3380;DHT22;1703;51.964;7.642;2022-07-04T07:10:25;19.00;99.90
3380;DHT22;1703;51.964;7.642;2022-07-04T07:12:52;19.00;99.90
3380;DHT22;1703;51.964;7.642;2022-07-04T07:15:20;19.20;99.90
3380;DHT22;1703;51.964;7.642;2022-07-04T07:17:47;19.30;99.90
3380;DHT22;1703;51.964;7.642;2022-07-04T07:20:14;19.40;99.90
3380;DHT22;1703;51.964;7.642;2022-07-04T07:22:41;19.30;99.90
3380;DHT22;1703;51.964;7.642;2022-07-04T07:25:09;19.20;99.90
3380;DHT22;1703;51.964;7.642;2022-07-04T07:27:36;19.30;99.90
3380;DHT22;1703;51.964;7.642;2022-07-04T07:30:03;19.30;99.90
3380;DHT22;1703;51.964;7.642;2022-07-04T07:32:32;19.30;99.90
3380;DHT22;1703;51.964;7.642;2022-07-04T07:34:59;19.30;99.90
3380;DHT22;1703;51.964;7.642;2022-07-04T07:37:26;19.30;99.90
3380;DHT22;1703;51.964;7.642;2022-07-04T07:39:53;19.30;99.90
3380;DHT22;1703;51.964;7.642;2022-07-04T07:42:19;19.30;99.90
3380;DHT22;1703;51.964;7.642;2022-07-04T07:44:46;19.40;99.90
3380;DHT22;1703;51.964;7.642;2022-07-04T07:47:13;19.40;99.90
3380;DHT22;1703;51.964;7.642;2022-07-04T07:49:42;19.50;99.90
3380;DHT22;1703;51.964;7.642;2022-07-04T07:52:09;19.50;99.90
3380;DHT22;1703;51.964;7.642;2022-07-04T07:54:37;19.50;99.90
3380;DHT22;1703;51.964;7.642;2022-07-04T07:57:04;19.50;99.90
3380;DHT22;1703;51.964;7.642;2022-07-04T07:59:31;19.60;99.90
3380;DHT22;1703;51.964;7.642;2022-07-04T08:01:58;19.70;99.90
3380;DHT22;1703;51.964;7.642;2022-07-04T08:04:24;19.70;99.90
3380;DHT22;1703;51.964;7.642;2022-07-04T08:07:07;19.70;99.90
3380;DHT22;1703;51.964;7.642;2022-07-04T08:09:35;19.70;99.90
3380;DHT22;1703;51.964;7.642;2022-07-04T08:12:04;19.70;99.90
3380;DHT22;1703;51.964;7.642;2022-07-04T08:14:32;19.70;99.90
3380;DHT22;1703;51.964;7.642;2022-07-04T08:17:00;19.80;99.90
3380;DHT22;1703;51.964;7.642;2022-07-04T08:19:27;19.90;99.90
3380;DHT22;1703;51.964;7.642;2022-07-04T08:21:54;20.10;99.90
3380;DHT22;1703;51.964;7.642;2022-07-04T08:24:22;20.20;99.90
3380;DHT22;1703;51.964;7.642;2022-07-04T08:26:49;20.30;99.90
3380;DHT22;1703;51.964;7.642;2022-07-04T08:29:17;20.30;99.90
3380;DHT22;1703;51.964;7.642;2022-07-04T08:31:44;20.30;99.90
3380;DHT22;1703;51.964;7.642;2022-07-04T08:34:11;20.20;99.90
3380;DHT22;1703;51.964;7.642;2022-07-04T08:36:37;20.30;99.90
3380;DHT22;1703;51.964;7.642;2022-07-04T08:39:04;20.50;99.90
3380;DHT22;1703;51.964;7.642;2022-07-04T08:41:37;20.60;99.90
3380;DHT22;1703;51.964;7.642;2022-07-04T08:44:06;20.70;99.90
3380;DHT22;1703;51.964;7.642;2022-07-04T08:46:36;20.80;99.90
3380;DHT22;1703;51.964;7.642;2022-07-04T08:49:10;20.90;99.90
3380;DHT22;1703;51.964;7.642;2022-07-04T08:51:43;20.80;99.90
3380;DHT22;1703;51.964;7.642;2022-07-04T08:54:11;20.80;99.90
3380;DHT22;1703;51.964;7.642;2022-07-04T08:56:55;20.80;99.90
3380;DHT22;1703;51.964;7.642;2022-07-04T08:59:39;20.80;99.90
3380;DHT22;1703;51.964;7.642;2022-07-04T09:02:12;20.80;99.90
3380;DHT22;1703;51.964;7.642;2022-07-04T09:04:40;20.80;99.90
3380;DHT22;1703;51.964;7.642;2022-07-04T09:07:10;20.80;99.90
3380;DHT22;1703;51.964;7.642;2022-07-04T09:09:38;20.90;99.90
3380;DHT22;1703;51.964;7.642;2022-07-04T09:12:07;21.00;99.90
3380;DHT22;1703;51.964;7.642;2022-07-04T09:14:34;21.20;99.90
3380;DHT22;1703;51.964;7.642;2022-07-04T09:17:02;21.20;99.90
3380;DHT22;1703;51.964;7.642;2022-07-04T09:19:29;21.30;99.90
3380;DHT22;1703;51.964;7.642;2022-07-04T09:21:56;21.50;99.90
3380;DHT22;1703;51.964;7.642;2022-07-04T09:24:42;21.60;99.90
3380;DHT22;1703;51.964;7.642;2022-07-04T09:27:11;21.50;99.90
3380;DHT22;1703;51.964;7.642;2022-07-04T09:29:51;21.50;99.90
3380;DHT22;1703;51.964;7.642;2022-07-04T09:32:24;21.50;99.90
3380;DHT22;1703;51.964;7.642;2022-07-04T09:34:54;21.60;99.90
3380;DHT22;1703;51.964;7.642;2022-07-04T09:37:21;21.40;99.90
3380;DHT22;1703;51.964;7.642;2022-07-04T09:39:48;21.40;99.90
3380;DHT22;1703;51.964;7.642;2022-07-04T09:42:19;21.40;99.90
3380;DHT22;1703;51.964;7.642;2022-07-04T09:44:46;21.50;99.90
3380;DHT22;1703;51.964;7.642;2022-07-04T09:47:21;21.60;99.90
3380;DHT22;1703;51.964;7.642;2022-07-04T09:50:01;21.70;99.90
3380;DHT22;1703;51.964;7.642;2022-07-04T09:52:29;21.80;99.90
3380;DHT22;1703;51.964;7.642;2022-07-04T09:54:57;22.10;99.90
3380;DHT22;1703;51.964;7.642;2022-07-04T09:57:26;22.10;99.90
3380;DHT22;1703;51.964;7.642;2022-07-04T09:59:53;22.00;99.90
3380;DHT22;1703;51.964;7.642;2022-07-04T10:02:20;22.10;99.90
3380;DHT22;1703;51.964;7.642;2022-07-04T10:04:48;22.10;99.90
3380;DHT22;1703;51.964;7.642;2022-07-04T10:07:31;22.20;99.90
3380;DHT22;1703;51.964;7.642;2022-07-04T10:09:58;22.30;99.90
3380;DHT22;1703;51.964;7.642;2022-07-04T10:12:27;22.50;99.90
3380;DHT22;1703;51.964;7.642;2022-07-04T10:14:55;22.50;99.90
3380;DHT22;1703;51.964;7.642;2022-07-04T10:17:22;22.40;99.90
3380;DHT22;1703;51.964;7.642;2022-07-04T10:19:49;22.50;99.90
3380;DHT22;1703;51.964;7.642;2022-07-04T10:22:18;22.60;99.90
3380;DHT22;1703;51.964;7.642;2022-07-04T10:24:47;22.60;99.90
3380;DHT22;1703;51.964;7.642;2022-07-04T10:27:14;22.70;99.90
3380;DHT22;1703;51.964;7.642;2022-07-04T10:29:43;22.80;99.90
3380;DHT22;1703;51.964;7.642;2022-07-04T10:32:11;22.90;99.90
3380;DHT22;1703;51.964;7.642;2022-07-04T10:34:39;22.70;99.90
3380;DHT22;1703;51.964;7.642;2022-07-04T10:37:07;22.60;99.90
3380;DHT22;1703;51.964;7.642;2022-07-04T10:39:33;22.70;99.90
3380;DHT22;1703;51.964;7.642;2022-07-04T10:42:00;22.70;99.90
3380;DHT22;1703;51.964;7.642;2022-07-04T10:44:28;22.80;99.90
3380;DHT22;1703;51.964;7.642;2022-07-04T10:47:04;22.90;99.90
3380;DHT22;1703;51.964;7.642;2022-07-04T10:49:31;22.90;99.90
3380;DHT22;1703;51.964;7.642;2022-07-04T10:52:12;23.10;99.90
3380;DHT22;1703;51.964;7.642;2022-07-04T10:54:40;23.20;99.90
3380;DHT22;1703;51.964;7.642;2022-07-04T10:57:11;23.00;99.90
3380;DHT22;1703;51.964;7.642;2022-07-04T10:59:39;23.10;99.90
3380;DHT22;1703;51.964;7.642;2022-07-04T11:02:27;23.50;99.90
3380;DHT22;1703;51.964;7.642;2022-07-04T11:05:00;23.50;99.90
3380;DHT22;1703;51.964;7.642;2022-07-04T11:07:59;23.40;99.90
3380;DHT22;1703;51.964;7.642;2022-07-04T11:10:26;23.30;99.90
3380;DHT22;1703;51.964;7.642;2022-07-04T11:13:17;23.30;99.90
3380;DHT22;1703;51.964;7.642;2022-07-04T11:16:00;23.40;99.90
3380;DHT22;1703;51.964;7.642;2022-07-04T11:18:29;23.70;99.90
3380;DHT22;1703;51.964;7.642;2022-07-04T11:20:56;23.60;99.90
3380;DHT22;1703;51.964;7.642;2022-07-04T11:23:23;23.50;99.90
3380;DHT22;1703;51.964;7.642;2022-07-04T11:25:50;23.40;99.90
3380;DHT22;1703;51.964;7.642;2022-07-04T11:28:21;23.60;99.90
3380;DHT22;1703;51.964;7.642;2022-07-04T11:30:49;23.80;99.90
3380;DHT22;1703;51.964;7.642;2022-07-04T11:33:18;23.60;99.90
3380;DHT22;1703;51.964;7.642;2022-07-04T11:36:03;23.60;99.90
3380;DHT22;1703;51.964;7.642;2022-07-04T11:38:43;23.50;99.90
3380;DHT22;1703;51.964;7.642;2022-07-04T11:41:10;23.40;99.90
3380;DHT22;1703;51.964;7.642;2022-07-04T11:43:55;23.30;99.90
3380;DHT22;1703;51.964;7.642;2022-07-04T11:46:44;23.20;99.90
3380;DHT22;1703;51.964;7.642;2022-07-04T11:49:12;23.50;99.90
3380;DHT22;1703;51.964;7.642;2022-07-04T11:51:43;23.70;99.90
3380;DHT22;1703;51.964;7.642;2022-07-04T11:54:10;23.90;99.90
3380;DHT22;1703;51.964;7.642;2022-07-04T11:56:37;23.80;99.90
3380;DHT22;1703;51.964;7.642;2022-07-04T11:59:12;23.80;99.90
3380;DHT22;1703;51.964;7.642;2022-07-04T12:01:40;23.90;99.90
3380;DHT22;1703;51.964;7.642;2022-07-04T12:04:18;24.10;99.90
3380;DHT22;1703;51.964;7.642;2022-07-04T12:06:48;24.10;99.90
3380;DHT22;1703;51.964;7.642;2022-07-04T12:09:15;23.90;99.90
3380;DHT22;1703;51.964;7.642;2022-07-04T12:11:56;23.80;99.90
3380;DHT22;1703;51.964;7.642;2022-07-04T12:14:24;23.70;99.90
3380;DHT22;1703;51.964;7.642;2022-07-04T12:17:31;23.70;99.90
3380;DHT22;1703;51.964;7.642;2022-07-04T12:23:55;23.60;99.90
3380;DHT22;1703;51.964;7.642;2022-07-04T12:30:16;23.50;99.90
3380;DHT22;1703;51.964;7.642;2022-07-04T12:32:51;23.50;99.90
3380;DHT22;1703;51.964;7.642;2022-07-04T12:35:39;23.70;99.90
3380;DHT22;1703;51.964;7.642;2022-07-04T12:38:07;23.80;99.90
3380;DHT22;1703;51.964;7.642;2022-07-04T12:40:48;23.90;99.90
3380;DHT22;1703;51.964;7.642;2022-07-04T12:43:15;23.90;99.90
3380;DHT22;1703;51.964;7.642;2022-07-04T12:45:46;24.00;99.90
3380;DHT22;1703;51.964;7.642;2022-07-04T12:48:18;24.40;99.90
3380;DHT22;1703;51.964;7.642;2022-07-04T12:50:46;24.60;99.90
3380;DHT22;1703;51.964;7.642;2022-07-04T12:53:13;24.40;99.90
3380;DHT22;1703;51.964;7.642;2022-07-04T12:55:42;24.50;99.90
3380;DHT22;1703;51.964;7.642;2022-07-04T12:58:10;24.40;99.90
3380;DHT22;1703;51.964;7.642;2022-07-04T13:00:37;24.40;99.90
3380;DHT22;1703;51.964;7.642;2022-07-04T13:03:04;24.50;99.90
3380;DHT22;1703;51.964;7.642;2022-07-04T13:05:34;24.40;99.90
3380;DHT22;1703;51.964;7.642;2022-07-04T13:08:01;24.40;99.90
3380;DHT22;1703;51.964;7.642;2022-07-04T13:10:29;24.50;99.90
3380;DHT22;1703;51.964;7.642;2022-07-04T13:12:59;24.40;99.90
3380;DHT22;1703;51.964;7.642;2022-07-04T13:15:25;24.30;99.90
3380;DHT22;1703;51.964;7.642;2022-07-04T13:17:52;24.30;99.90
3380;DHT22;1703;51.964;7.642;2022-07-04T13:20:19;24.50;99.90
3380;DHT22;1703;51.964;7.642;2022-07-04T13:22:46;24.50;99.90
3380;DHT22;1703;51.964;7.642;2022-07-04T13:25:13;24.80;99.90
3380;DHT22;1703;51.964;7.642;2022-07-04T13:27:42;25.40;99.90
3380;DHT22;1703;51.964;7.642;2022-07-04T13:30:11;26.20;99.90
3380;DHT22;1703;51.964;7.642;2022-07-04T13:32:38;27.40;99.90
3380;DHT22;1703;51.964;7.642;2022-07-04T13:35:05;27.40;99.90
3380;DHT22;1703;51.964;7.642;2022-07-04T13:37:32;28.50;99.90
3380;DHT22;1703;51.964;7.642;2022-07-04T13:39:59;29.50;97.20
3380;DHT22;1703;51.964;7.642;2022-07-04T13:42:26;29.60;95.30
3380;DHT22;1703;51.964;7.642;2022-07-04T13:45:12;29.90;92.80
3380;DHT22;1703;51.964;7.642;2022-07-04T13:47:40;30.40;92.50
3380;DHT22;1703;51.964;7.642;2022-07-04T13:50:07;30.00;90.30
3380;DHT22;1703;51.964;7.642;2022-07-04T13:52:34;29.60;91.40
3380;DHT22;1703;51.964;7.642;2022-07-04T13:55:01;29.40;91.20
3380;DHT22;1703;51.964;7.642;2022-07-04T13:57:28;28.90;90.80
3380;DHT22;1703;51.964;7.642;2022-07-04T13:59:55;28.40;91.00
3380;DHT22;1703;51.964;7.642;2022-07-04T14:02:23;28.90;91.80
3380;DHT22;1703;51.964;7.642;2022-07-04T14:04:50;29.20;90.90
3380;DHT22;1703;51.964;7.642;2022-07-04T14:07:17;29.50;91.20
3380;DHT22;1703;51.964;7.642;2022-07-04T14:09:44;29.60;90.60
3380;DHT22;1703;51.964;7.642;2022-07-04T14:12:11;29.20;90.00
3380;DHT22;1703;51.964;7.642;2022-07-04T14:14:38;28.30;90.10
3380;DHT22;1703;51.964;7.642;2022-07-04T14:17:05;27.90;91.50
3380;DHT22;1703;51.964;7.642;2022-07-04T14:19:33;27.60;91.70
3380;DHT22;1703;51.964;7.642;2022-07-04T14:22:00;27.10;92.30
3380;DHT22;1703;51.964;7.642;2022-07-04T14:24:26;26.50;93.00
3380;DHT22;1703;51.964;7.642;2022-07-04T14:26:54;26.30;94.70
3380;DHT22;1703;51.964;7.642;2022-07-04T14:29:21;26.10;95.20
3380;DHT22;1703;51.964;7.642;2022-07-04T14:31:48;26.30;96.20
3380;DHT22;1703;51.964;7.642;2022-07-04T14:34:17;26.40;96.20
3380;DHT22;1703;51.964;7.642;2022-07-04T14:36:45;26.40;96.70
3380;DHT22;1703;51.964;7.642;2022-07-04T14:39:12;26.10;96.40
3380;DHT22;1703;51.964;7.642;2022-07-04T14:41:38;26.10;97.30
3380;DHT22;1703;51.964;7.642;2022-07-04T14:44:05;26.10;97.60
3380;DHT22;1703;51.964;7.642;2022-07-04T14:46:32;26.10;97.80
3380;DHT22;1703;51.964;7.642;2022-07-04T14:48:59;26.00;98.50
3380;DHT22;1703;51.964;7.642;2022-07-04T14:51:26;26.10;99.00
3380;DHT22;1703;51.964;7.642;2022-07-04T14:53:54;26.00;98.00
3380;DHT22;1703;51.964;7.642;2022-07-04T14:56:21;25.90;98.50
3380;DHT22;1703;51.964;7.642;2022-07-04T14:58:47;25.70;98.50
3380;DHT22;1703;51.964;7.642;2022-07-04T15:01:14;25.60;99.30
3380;DHT22;1703;51.964;7.642;2022-07-04T15:03:41;25.60;99.90
3380;DHT22;1703;51.964;7.642;2022-07-04T15:06:08;25.60;99.70
3380;DHT22;1703;51.964;7.642;2022-07-04T15:08:35;25.50;99.90
3380;DHT22;1703;51.964;7.642;2022-07-04T15:11:03;25.40;99.90
3380;DHT22;1703;51.964;7.642;2022-07-04T15:13:30;25.30;99.90
3380;DHT22;1703;51.964;7.642;2022-07-04T15:15:57;25.20;99.90
3380;DHT22;1703;51.964;7.642;2022-07-04T15:18:23;25.20;99.90
3380;DHT22;1703;51.964;7.642;2022-07-04T15:20:50;25.10;99.90
3380;DHT22;1703;51.964;7.642;2022-07-04T15:23:35;25.10;99.90
3380;DHT22;1703;51.964;7.642;2022-07-04T15:26:20;25.00;99.90
3380;DHT22;1703;51.964;7.642;2022-07-04T15:28:47;24.80;99.90
3380;DHT22;1703;51.964;7.642;2022-07-04T15:31:14;24.80;99.90
3380;DHT22;1703;51.964;7.642;2022-07-04T15:33:41;24.80;99.90
3380;DHT22;1703;51.964;7.642;2022-07-04T15:36:08;24.70;99.90
3380;DHT22;1703;51.964;7.642;2022-07-04T15:38:35;24.70;99.90
3380;DHT22;1703;51.964;7.642;2022-07-04T15:41:02;24.80;99.90
3380;DHT22;1703;51.964;7.642;2022-07-04T15:43:30;25.00;99.90
3380;DHT22;1703;51.964;7.642;2022-07-04T15:45:57;25.00;99.90
3380;DHT22;1703;51.964;7.642;2022-07-04T15:48:24;25.00;99.90
3380;DHT22;1703;51.964;7.642;2022-07-04T15:50:51;24.90;99.90
3380;DHT22;1703;51.964;7.642;2022-07-04T15:53:18;25.00;99.90
3380;DHT22;1703;51.964;7.642;2022-07-04T15:55:45;25.10;99.90
3380;DHT22;1703;51.964;7.642;2022-07-04T15:58:12;25.00;99.90
3380;DHT22;1703;51.964;7.642;2022-07-04T16:00:40;24.80;99.90
3380;DHT22;1703;51.964;7.642;2022-07-04T16:03:07;24.70;99.90
3380;DHT22;1703;51.964;7.642;2022-07-04T16:05:34;24.80;99.90
3380;DHT22;1703;51.964;7.642;2022-07-04T16:08:01;24.90;99.90
3380;DHT22;1703;51.964;7.642;2022-07-04T16:10:28;25.00;99.90
3380;DHT22;1703;51.964;7.642;2022-07-04T16:12:54;25.00;99.90
3380;DHT22;1703;51.964;7.642;2022-07-04T16:15:22;24.90;99.90
3380;DHT22;1703;51.964;7.642;2022-07-04T16:17:50;24.80;99.90
3380;DHT22;1703;51.964;7.642;2022-07-04T16:20:17;24.80;99.90